createdAt,value
2023-03-16T00:02:15.915Z,100478.66
2023-03-16T00:05:18.598Z,100476.50
2023-03-16T00:08:20.908Z,100482.53
2023-03-16T00:11:23.413Z,100488.37
2023-03-16T00:14:26.619Z,100486.06
2023-03-16T00:17:29.089Z,100496.97
2023-03-16T00:20:31.273Z,100496.38
2023-03-16T00:23:37.591Z,100502.88
2023-03-16T00:26:40.039Z,100505.69
2023-03-16T00:29:47.032Z,100516.38
2023-03-16T00:32:49.172Z,100507.72
2023-03-16T00:36:02.042Z,100515.53
2023-03-16T00:39:05.954Z,100509.81
2023-03-16T00:42:10.409Z,100510.84
2023-03-16T00:45:12.847Z,100515.44
2023-03-16T00:48:16.408Z,100519.16
2023-03-16T00:51:19.533Z,100516.13
2023-03-16T00:54:22.154Z,100519.66
2023-03-16T00:57:27.570Z,100527.38
2023-03-16T01:00:30.830Z,100520.78
2023-03-16T01:03:33.827Z,100528.41
2023-03-16T01:06:38.795Z,100525.56
2023-03-16T01:09:42.560Z,100518.22
2023-03-16T01:12:45.770Z,100517.63
2023-03-16T01:15:51.327Z,100520.41
2023-03-16T01:18:54.352Z,100524.13
2023-03-16T01:21:56.526Z,100523.75
2023-03-16T01:24:59.018Z,100529.13
2023-03-16T01:28:01.756Z,100520.28
2023-03-16T01:31:10.192Z,100532.09
2023-03-16T01:34:16.699Z,100520.62
2023-03-16T01:37:19.833Z,100531.72
2023-03-16T01:40:23.192Z,100527.09
2023-03-16T01:43:28.849Z,100524.34
2023-03-16T01:46:31.737Z,100526.72
2023-03-16T01:49:37.971Z,100529.56
2023-03-16T01:52:40.930Z,100529.50
2023-03-16T01:55:43.633Z,100529.97
2023-03-16T01:58:47.072Z,100534.56
2023-03-16T02:01:51.835Z,100540.31
2023-03-16T02:05:00.222Z,100548.47
2023-03-16T02:08:04.009Z,100549.63
2023-03-16T02:11:08.570Z,100556.75
2023-03-16T02:14:14.114Z,100552.31
2023-03-16T02:17:20.889Z,100562.84
2023-03-16T02:20:33.469Z,100560.34
2023-03-16T02:23:35.975Z,100572.87
2023-03-16T02:26:47.869Z,100572.81
2023-03-16T02:30:11.695Z,100578.97
2023-03-16T02:33:17.580Z,100580.72
2023-03-16T02:36:20.820Z,100579.94
2023-03-16T02:39:23.614Z,100587.84
2023-03-16T02:42:27.679Z,100593.13
2023-03-16T02:45:46.468Z,100594.00
2023-03-16T02:49:22.716Z,100603.78
2023-03-16T02:52:25.100Z,100603.16
2023-03-16T02:55:27.840Z,100599.69
2023-03-16T02:58:30.589Z,100605.03
2023-03-16T03:01:34.935Z,100616.09
2023-03-16T03:04:37.166Z,100611.47
2023-03-16T03:07:42.064Z,100610.50
2023-03-16T03:10:44.256Z,100623.06
2023-03-16T03:13:47.470Z,100630.09
2023-03-16T03:16:52.182Z,100627.97
2023-03-16T03:19:54.914Z,100634.78
2023-03-16T03:22:57.257Z,100635.97
2023-03-16T03:26:00.445Z,100639.53
2023-03-16T03:29:03.104Z,100648.22
2023-03-16T03:32:06.692Z,100652.44
2023-03-16T03:35:09.149Z,100648.50
2023-03-16T03:38:11.878Z,100657.91
2023-03-16T03:41:15.113Z,100657.78
2023-03-16T03:44:17.915Z,100665.00
2023-03-16T03:47:20.640Z,100665.94
2023-03-16T03:50:23.180Z,100672.84
2023-03-16T03:53:26.311Z,100673.59
2023-03-16T03:56:32.584Z,100682.50
2023-03-16T03:59:35.275Z,100684.31
2023-03-16T04:02:38.827Z,100686.06
2023-03-16T04:05:41.843Z,100684.66
2023-03-16T04:08:44.065Z,100690.84
2023-03-16T04:11:46.836Z,100695.81
2023-03-16T04:14:49.111Z,100691.50
2023-03-16T04:17:52.664Z,100705.47
2023-03-16T04:20:55.432Z,100707.56
2023-03-16T04:23:58.194Z,100697.94
2023-03-16T04:27:03.026Z,100707.63
2023-03-16T04:30:11.200Z,100706.53
2023-03-16T04:33:14.937Z,100708.47
2023-03-16T04:36:18.273Z,100718.13
2023-03-16T04:39:21.318Z,100717.66
2023-03-16T04:42:24.389Z,100725.75
2023-03-16T04:45:26.711Z,100720.16
2023-03-16T04:48:32.172Z,100725.28
2023-03-16T04:51:34.709Z,100729.88
2023-03-16T04:54:38.227Z,100727.25
2023-03-16T04:57:40.545Z,100735.72
2023-03-16T05:00:43.360Z,100746.22
2023-03-16T05:03:49.778Z,100742.37
2023-03-16T05:06:52.940Z,100744.88
2023-03-16T05:09:56.556Z,100744.69
2023-03-16T05:12:59.628Z,100750.66
2023-03-16T05:16:02.076Z,100751.22
2023-03-16T05:19:05.480Z,100756.09
2023-03-16T05:22:08.913Z,100756.63
2023-03-16T05:25:15.078Z,100762.00
2023-03-16T05:28:18.108Z,100769.72
2023-03-16T05:31:21.157Z,100767.78
2023-03-16T05:34:23.926Z,100763.13
2023-03-16T05:37:27.256Z,100767.97
2023-03-16T05:40:30.174Z,100772.31
2023-03-16T05:43:34.423Z,100763.94
2023-03-16T05:46:38.412Z,100771.03
2023-03-16T05:49:41.727Z,100780.88
2023-03-16T05:52:47.523Z,100772.37
2023-03-16T05:55:53.608Z,100766.88
2023-03-16T05:58:57.068Z,100772.09
2023-03-16T06:01:59.860Z,100777.19
2023-03-16T06:05:03.622Z,100776.69
2023-03-16T06:08:05.925Z,100787.72
2023-03-16T06:11:09.040Z,100787.84
2023-03-16T06:14:11.632Z,100785.19
2023-03-16T06:17:14.525Z,100788.16
2023-03-16T06:20:17.571Z,100795.56
2023-03-16T06:23:21.385Z,100799.81
2023-03-16T06:26:24.459Z,100805.50
2023-03-16T06:29:27.679Z,100802.34
2023-03-16T06:32:30.431Z,100804.34
2023-03-16T06:35:34.274Z,100813.31
2023-03-16T06:38:39.143Z,100822.97
2023-03-16T06:41:43.025Z,100830.53
2023-03-16T06:44:46.168Z,100829.16
2023-03-16T06:47:49.606Z,100829.06
2023-03-16T06:50:52.648Z,100837.13
2023-03-16T06:53:56.323Z,100844.47
2023-03-16T06:56:59.304Z,100844.53
2023-03-16T07:00:04.670Z,100858.53
2023-03-16T07:03:07.278Z,100858.53
2023-03-16T07:06:13.147Z,100851.72
2023-03-16T07:09:17.953Z,100855.13
2023-03-16T07:12:21.744Z,100865.22
2023-03-16T07:15:26.707Z,100863.06
2023-03-16T07:18:32.829Z,100865.47
2023-03-16T07:21:40.021Z,100874.22
2023-03-16T07:24:44.220Z,100884.25
2023-03-16T07:27:48.780Z,100875.72
2023-03-16T07:31:03.389Z,100890.91
2023-03-16T07:34:08.315Z,100894.91
2023-03-16T07:37:11.748Z,100892.72
2023-03-16T07:40:15.940Z,100894.72
2023-03-16T07:43:19.416Z,100890.19
2023-03-16T07:46:25.034Z,100892.22
2023-03-16T07:49:28.070Z,100898.81
2023-03-16T07:52:30.750Z,100906.59
2023-03-16T07:55:36.641Z,100900.22
2023-03-16T07:58:41.785Z,100897.38
2023-03-16T08:01:46.368Z,100908.56
2023-03-16T08:04:49.418Z,100908.31
2023-03-16T08:07:51.885Z,100911.69
2023-03-16T08:10:56.763Z,100919.97
2023-03-16T08:14:00.289Z,100923.00
2023-03-16T08:17:05.820Z,100921.13
2023-03-16T08:20:14.442Z,100923.62
2023-03-16T08:23:17.443Z,100935.63
2023-03-16T08:26:21.329Z,100936.72
2023-03-16T08:29:27.228Z,100934.66
2023-03-16T08:32:30.655Z,100937.63
2023-03-16T08:35:35.959Z,100939.72
2023-03-16T08:38:39.966Z,100941.06
2023-03-16T08:41:49.253Z,100929.38
2023-03-16T08:44:55.094Z,100942.81
2023-03-16T08:47:58.736Z,100938.97
2023-03-16T08:51:05.776Z,100937.19
2023-03-16T08:54:08.298Z,100929.00
2023-03-16T08:57:10.711Z,100935.69
2023-03-16T09:00:14.712Z,100941.66
2023-03-16T09:03:16.823Z,100940.03
2023-03-16T09:06:19.941Z,100936.28
2023-03-16T09:09:22.669Z,100943.13
2023-03-16T09:12:25.316Z,100947.62
2023-03-16T09:15:29.197Z,100951.69
2023-03-16T09:18:33.253Z,100954.47
2023-03-16T09:21:36.157Z,100956.16
2023-03-16T09:24:38.812Z,100955.37
2023-03-16T09:27:41.626Z,100946.56
2023-03-16T09:30:48.366Z,100960.09
2023-03-16T09:33:51.377Z,100959.94
2023-03-16T09:36:54.048Z,100948.91
2023-03-16T09:40:03.250Z,100967.69
2023-03-16T09:43:24.262Z,100963.72
2023-03-16T09:46:36.821Z,100967.75
2023-03-16T09:49:47.703Z,100968.78
2023-03-16T09:53:02.384Z,100970.75
2023-03-16T09:56:08.416Z,100967.78
2023-03-16T09:59:17.436Z,100963.69
2023-03-16T10:02:45.649Z,100968.94
2023-03-16T10:05:54.541Z,100970.84
2023-03-16T10:09:26.265Z,100977.22
2023-03-16T10:12:38.154Z,100981.28
2023-03-16T10:15:40.889Z,100980.00
2023-03-16T10:18:48.841Z,100974.50
2023-03-16T10:21:54.449Z,100974.69
2023-03-16T10:25:19.930Z,100970.84
2023-03-16T10:28:27.758Z,100971.31
2023-03-16T10:31:30.384Z,100964.94
2023-03-16T10:34:32.685Z,100963.16
2023-03-16T10:37:35.953Z,100975.16
2023-03-16T10:40:39.645Z,100969.84
2023-03-16T10:43:42.214Z,100968.97
2023-03-16T10:46:50.965Z,100978.19
2023-03-16T10:49:53.467Z,100966.44
2023-03-16T10:52:57.607Z,100972.47
2023-03-16T10:56:12.102Z,100962.19
2023-03-16T10:59:35.656Z,100961.34
2023-03-16T11:02:39.192Z,100962.94
2023-03-16T11:05:41.974Z,100962.31
2023-03-16T11:08:45.282Z,100961.03
2023-03-16T11:11:49.415Z,100952.25
2023-03-16T11:14:52.399Z,100951.91
2023-03-16T11:17:55.086Z,100952.00
2023-03-16T11:21:05.154Z,100945.75
2023-03-16T11:24:18.673Z,100941.31
2023-03-16T11:27:51.552Z,100929.31
2023-03-16T11:31:06.482Z,100941.00
2023-03-16T11:34:15.707Z,100942.00
2023-03-16T11:37:33.734Z,100935.81
2023-03-16T11:40:56.070Z,100927.94
2023-03-16T11:44:29.620Z,100924.44
2023-03-16T11:47:35.274Z,100919.56
2023-03-16T11:51:02.701Z,100927.28
2023-03-16T11:54:26.907Z,100932.94
2023-03-16T11:58:02.787Z,100927.59
2023-03-16T12:01:11.686Z,100922.25
2023-03-16T12:04:59.753Z,100920.22
2023-03-16T12:08:19.171Z,100917.19
2023-03-16T12:11:40.988Z,100911.13
2023-03-16T12:14:50.911Z,100908.88
2023-03-16T12:17:58.613Z,100910.16
2023-03-16T12:21:15.028Z,100910.00
2023-03-16T12:24:27.394Z,100912.16
2023-03-16T12:27:36.620Z,100913.59
2023-03-16T12:30:52.526Z,100910.44
2023-03-16T12:34:39.691Z,100911.69
2023-03-16T12:37:49.644Z,100916.84
2023-03-16T12:41:10.284Z,100913.19
2023-03-16T12:44:21.059Z,100907.69
2023-03-16T12:47:38.515Z,100913.97
2023-03-16T12:50:51.045Z,100907.66
2023-03-16T12:53:55.505Z,100900.25
2023-03-16T12:57:18.364Z,100899.09
2023-03-16T13:00:21.555Z,100910.25
2023-03-16T13:03:28.555Z,100908.13
2023-03-16T13:06:36.379Z,100896.66
2023-03-16T13:09:49.285Z,100896.28
2023-03-16T13:12:51.695Z,100880.00
2023-03-16T13:16:12.800Z,100900.03
2023-03-16T13:19:30.457Z,100911.59
2023-03-16T13:22:44.118Z,100900.44
2023-03-16T13:26:16.639Z,100897.00
2023-03-16T13:29:23.042Z,100911.09
2023-03-16T13:32:30.259Z,100896.03
2023-03-16T13:35:33.295Z,100905.94
2023-03-16T13:38:36.213Z,100901.06
2023-03-16T13:41:38.786Z,100906.00
2023-03-16T13:44:41.838Z,100912.59
2023-03-16T13:47:45.331Z,100912.38
2023-03-16T13:50:57.693Z,100911.41
2023-03-16T13:54:06.285Z,100904.34
2023-03-16T13:57:12.618Z,100897.69
2023-03-16T14:00:25.415Z,100900.75
2023-03-16T14:03:34.246Z,100902.75
2023-03-16T14:06:36.727Z,100900.56
2023-03-16T14:09:39.997Z,100891.59
2023-03-16T14:12:54.746Z,100902.28
2023-03-16T14:16:01.262Z,100902.81
2023-03-16T14:19:08.307Z,100903.53
2023-03-16T14:22:14.438Z,100906.47
2023-03-16T14:25:22.622Z,100905.84
2023-03-16T14:28:34.778Z,100915.69
2023-03-16T14:31:41.053Z,100906.94
2023-03-16T14:34:49.769Z,100915.25
2023-03-16T14:37:55.225Z,100914.00
2023-03-16T14:41:05.154Z,100920.50
2023-03-16T14:44:19.330Z,100922.66
2023-03-16T14:47:24.065Z,100914.94
2023-03-16T14:50:26.293Z,100913.56
2023-03-16T14:53:30.010Z,100919.22
2023-03-16T14:56:37.448Z,100924.47
2023-03-16T14:59:39.943Z,100924.69
2023-03-16T15:02:45.144Z,100925.53
2023-03-16T15:05:50.734Z,100925.88
2023-03-16T15:08:54.611Z,100926.50
2023-03-16T15:11:58.069Z,100929.56
2023-03-16T15:15:16.686Z,100925.97
2023-03-16T15:18:19.184Z,100940.44
2023-03-16T15:21:25.517Z,100940.78
2023-03-16T15:24:30.123Z,100935.22
2023-03-16T15:27:35.680Z,100939.22
2023-03-16T15:30:38.202Z,100945.81
2023-03-16T15:33:41.447Z,100936.16
2023-03-16T15:36:43.988Z,100936.25
2023-03-16T15:39:47.368Z,100942.59
2023-03-16T15:42:49.868Z,100950.44
2023-03-16T15:45:52.495Z,100956.97
2023-03-16T15:48:55.097Z,100956.22
2023-03-16T15:51:57.509Z,100964.19
2023-03-16T15:55:04.721Z,100960.19
2023-03-16T15:58:16.110Z,100966.72
2023-03-16T16:01:23.187Z,100967.00
2023-03-16T16:04:26.023Z,100968.22
2023-03-16T16:07:28.290Z,100964.62
2023-03-16T16:10:32.274Z,100971.78
2023-03-16T16:13:44.193Z,100976.66
2023-03-16T16:16:47.579Z,100983.19
2023-03-16T16:19:50.062Z,100989.34
2023-03-16T16:22:55.019Z,100986.19
2023-03-16T16:26:01.384Z,100995.16
2023-03-16T16:29:14.795Z,100992.53
2023-03-16T16:32:24.113Z,101000.91
2023-03-16T16:35:30.701Z,101002.28
2023-03-16T16:38:33.596Z,101018.06
2023-03-16T16:41:37.533Z,101018.72
2023-03-16T16:44:39.748Z,101019.91
2023-03-16T16:47:42.234Z,101023.34
2023-03-16T16:52:21.228Z,101035.94
2023-03-16T16:55:24.784Z,101035.94
2023-03-16T16:58:27.167Z,101043.94
2023-03-16T17:01:35.662Z,101041.81
2023-03-16T17:04:37.885Z,101047.41
2023-03-16T17:07:40.450Z,101054.09
2023-03-16T17:10:42.916Z,101060.50
2023-03-16T17:13:46.967Z,101066.53
2023-03-16T17:16:51.610Z,101060.56
2023-03-16T17:19:54.173Z,101063.06
2023-03-16T17:22:58.630Z,101072.72
2023-03-16T17:26:27.944Z,101077.22
2023-03-16T17:29:32.537Z,101076.94
2023-03-16T17:32:35.065Z,101075.72
2023-03-16T17:35:37.437Z,101084.09
2023-03-16T17:38:39.973Z,101083.31
2023-03-16T17:41:43.350Z,101089.91
2023-03-16T17:44:51.694Z,101089.56
2023-03-16T17:47:54.522Z,101090.50
2023-03-16T17:50:57.013Z,101091.75
2023-03-16T17:53:59.200Z,101095.22
2023-03-16T17:57:01.878Z,101101.34
2023-03-16T18:00:18.345Z,101105.81
2023-03-16T18:03:22.117Z,101098.25
2023-03-16T18:06:26.131Z,101105.69
2023-03-16T18:09:28.739Z,101111.97
2023-03-16T18:12:31.615Z,101114.09
2023-03-16T18:15:36.713Z,101117.84
2023-03-16T18:18:42.746Z,101120.12
2023-03-16T18:21:46.353Z,101121.44
2023-03-16T18:24:50.085Z,101125.47
2023-03-16T18:27:52.545Z,101125.31
2023-03-16T18:30:55.254Z,101128.44
2023-03-16T18:34:00.787Z,101126.62
2023-03-16T18:37:06.178Z,101129.22
2023-03-16T18:40:17.439Z,101137.59
2023-03-16T18:43:19.639Z,101138.66
2023-03-16T18:46:31.494Z,101139.38
2023-03-16T18:49:36.750Z,101143.59
2023-03-16T18:52:40.300Z,101144.25
2023-03-16T18:55:45.517Z,101152.31
2023-03-16T18:58:49.392Z,101162.19
2023-03-16T19:01:52.255Z,101193.56
2023-03-16T19:04:56.784Z,101191.47
2023-03-16T19:07:59.387Z,101197.19
2023-03-16T19:11:03.214Z,101197.91
2023-03-16T19:14:32.980Z,101210.22
2023-03-16T19:17:35.775Z,101215.50
2023-03-16T19:20:38.700Z,101211.81
2023-03-16T19:23:41.389Z,101219.94
2023-03-16T19:26:43.752Z,101223.03
2023-03-16T19:29:46.335Z,101227.63
2023-03-16T19:32:49.898Z,101241.75
2023-03-16T19:35:54.319Z,101236.69
2023-03-16T19:38:57.863Z,101245.59
2023-03-16T19:42:00.374Z,101251.13
2023-03-16T19:45:04.302Z,101250.78
2023-03-16T19:48:13.782Z,101256.06
2023-03-16T19:51:17.495Z,101262.97
2023-03-16T19:54:21.758Z,101263.75
2023-03-16T19:57:24.168Z,101264.37
2023-03-16T20:00:27.010Z,101268.50
2023-03-16T20:03:33.396Z,101274.22
2023-03-16T20:06:35.764Z,101274.72
2023-03-16T20:09:38.633Z,101276.34
2023-03-16T20:12:41.836Z,101284.09
2023-03-16T20:15:45.107Z,101286.41
2023-03-16T20:18:52.081Z,101286.78
2023-03-16T20:21:54.473Z,101291.69
2023-03-16T20:24:57.996Z,101293.97
2023-03-16T20:28:03.832Z,101292.75
2023-03-16T20:31:09.145Z,101289.44
2023-03-16T20:34:25.814Z,101306.41
2023-03-16T20:37:30.042Z,101307.63
2023-03-16T20:40:33.367Z,101306.44
2023-03-16T20:43:36.255Z,101307.03
2023-03-16T20:46:41.137Z,101310.41
2023-03-16T20:49:43.904Z,101309.34
2023-03-16T20:52:46.559Z,101308.97
2023-03-16T20:55:50.391Z,101304.16
2023-03-16T20:58:55.583Z,101302.44
2023-03-16T21:01:57.740Z,101312.78
2023-03-16T21:05:01.742Z,101309.25
2023-03-16T21:08:03.976Z,101314.06
2023-03-16T21:11:19.952Z,101305.88
2023-03-16T21:14:23.867Z,101314.03
2023-03-16T21:17:32.745Z,101315.44
2023-03-16T21:20:35.853Z,101322.06
2023-03-16T21:23:38.330Z,101323.94
2023-03-16T21:26:42.781Z,101327.53
2023-03-16T21:29:45.281Z,101332.44
2023-03-16T21:32:47.538Z,101339.47
2023-03-16T21:35:50.559Z,101343.03
2023-03-16T21:38:53.643Z,101338.16
2023-03-16T21:41:56.271Z,101334.97
2023-03-16T21:44:58.460Z,101348.16
2023-03-16T21:48:00.937Z,101344.91
2023-03-16T21:51:10.436Z,101343.34
2023-03-16T21:54:17.372Z,101341.87
2023-03-16T21:57:19.850Z,101337.56
2023-03-16T22:00:29.083Z,101335.00
2023-03-16T22:03:49.758Z,101343.88
2023-03-16T22:06:52.971Z,101339.69
2023-03-16T22:09:55.891Z,101348.59
2023-03-16T22:12:58.810Z,101348.59
2023-03-16T22:16:02.190Z,101351.16
2023-03-16T22:19:04.849Z,101355.69
2023-03-16T22:22:13.487Z,101356.81
2023-03-16T22:25:18.947Z,101351.63
2023-03-16T22:28:21.413Z,101351.69
2023-03-16T22:31:38.641Z,101350.78
2023-03-16T22:34:44.306Z,101350.78
2023-03-16T22:37:46.960Z,101344.06
2023-03-16T22:40:49.724Z,101345.69
2023-03-16T22:43:52.609Z,101352.84
2023-03-16T22:47:20.245Z,101354.88
2023-03-16T22:50:25.573Z,101348.84
2023-03-16T22:53:37.887Z,101347.12
2023-03-16T22:56:42.793Z,101355.91
2023-03-16T22:59:45.953Z,101354.16
2023-03-16T23:02:49.465Z,101357.66
2023-03-16T23:05:52.234Z,101356.03
2023-03-16T23:08:55.452Z,101353.66
2023-03-16T23:11:59.421Z,101357.31
2023-03-16T23:15:01.742Z,101360.78
2023-03-16T23:18:11.200Z,101372.22
2023-03-16T23:21:16.574Z,101371.56
2023-03-16T23:24:19.062Z,101374.19
2023-03-16T23:27:23.971Z,101382.13
2023-03-16T23:30:26.668Z,101376.94
2023-03-16T23:33:28.898Z,101378.72
2023-03-16T23:36:31.664Z,101380.62
2023-03-16T23:39:33.870Z,101381.44
2023-03-16T23:42:36.425Z,101384.06
2023-03-16T23:45:44.556Z,101381.28
2023-03-16T23:48:49.201Z,101384.03
2023-03-16T23:51:52.857Z,101385.84
2023-03-16T23:54:56.495Z,101385.16
2023-03-16T23:57:58.748Z,101388.94
